sensor_id;sensor_type;location;lat;lon;timestamp;pressure;altitude;pressure_sealevel;temperature;humidity
10145;BME280;5113;41.822;23.564;2022-10-16T00:01:44;-11074.25;;;5.06;100.00
10145;BME280;5113;41.822;23.564;2022-10-16T00:04:50;-11091.09;;;5.67;100.00
10145;BME280;5113;41.822;23.564;2022-10-16T00:07:58;-11076.50;;;5.14;100.00
10145;BME280;5113;41.822;23.564;2022-10-16T00:11:05;-11073.69;;;5.04;100.00
10145;BME280;5113;41.822;23.564;2022-10-16T00:14:13;-11092.38;;;5.72;100.00
10145;BME280;5113;41.822;23.564;2022-10-16T00:17:20;-11083.38;;;5.39;100.00
10145;BME280;5113;41.822;23.564;2022-10-16T00:20:26;-11056.00;;;4.40;100.00
10145;BME280;5113;41.822;23.564;2022-10-16T00:23:34;-11047.03;;;4.08;100.00
10145;BME280;5113;41.822;23.564;2022-10-16T00:26:40;-11065.69;;;4.75;100.00
10145;BME280;5113;41.822;23.564;2022-10-16T00:29:49;-11079.59;;;5.25;100.00
10145;BME280;5113;41.822;23.564;2022-10-16T00:32:56;-11081.28;;;5.31;100.00
10145;BME280;5113;41.822;23.564;2022-10-16T00:36:04;-11066.25;;;4.77;100.00
10145;BME280;5113;41.822;23.564;2022-10-16T00:39:12;-11075.66;;;5.11;100.00
10145;BME280;5113;41.822;23.564;2022-10-16T00:42:19;-11074.81;;;5.08;100.00
10145;BME280;5113;41.822;23.564;2022-10-16T00:45:25;-11069.63;;;4.89;100.00
10145;BME280;5113;41.822;23.564;2022-10-16T00:48:32;-11070.88;;;4.94;100.00
10145;BME280;5113;41.822;23.564;2022-10-16T00:51:40;-11084.34;;;5.43;100.00
10145;BME280;5113;41.822;23.564;2022-10-16T00:54:49;-11065.00;;;4.73;100.00
10145;BME280;5113;41.822;23.564;2022-10-16T00:57:56;-11054.47;;;4.35;100.00
10145;BME280;5113;41.822;23.564;2022-10-16T01:01:03;-11052.06;;;4.26;100.00
10145;BME280;5113;41.822;23.564;2022-10-16T01:04:09;-11066.38;;;4.78;100.00
10145;BME280;5113;41.822;23.564;2022-10-16T01:07:23;-11072.00;;;4.98;100.00
10145;BME280;5113;41.822;23.564;2022-10-16T01:10:36;-11056.56;;;4.42;100.00
10145;BME280;5113;41.822;23.564;2022-10-16T01:13:48;-11029.78;;;3.45;100.00
10145;BME280;5113;41.822;23.564;2022-10-16T01:17:00;-11025.44;;;3.29;100.00
10145;BME280;5113;41.822;23.564;2022-10-16T01:20:14;-11024.88;;;3.27;100.00
10145;BME280;5113;41.822;23.564;2022-10-16T01:23:36;-11031.44;;;3.51;100.00
10145;BME280;5113;41.822;23.564;2022-10-16T01:27:03;-11036.78;;;3.71;100.00
10145;BME280;5113;41.822;23.564;2022-10-16T01:30:14;-11022.06;;;3.17;100.00
10145;BME280;5113;41.822;23.564;2022-10-16T01:33:25;-11028.78;;;3.42;100.00
10145;BME280;5113;41.822;23.564;2022-10-16T01:36:37;-11024.44;;;3.26;100.00
10145;BME280;5113;41.822;23.564;2022-10-16T01:39:46;-11031.16;;;3.50;100.00
10145;BME280;5113;41.822;23.564;2022-10-16T01:42:59;-11032.56;;;3.55;100.00
10145;BME280;5113;41.822;23.564;2022-10-16T01:46:08;-11027.94;;;3.39;100.00
10145;BME280;5113;41.822;23.564;2022-10-16T01:49:16;-11037.34;;;3.73;100.00
10145;BME280;5113;41.822;23.564;2022-10-16T01:52:25;-11065.00;;;4.73;100.00
10145;BME280;5113;41.822;23.564;2022-10-16T01:55:37;-11063.44;;;4.67;100.00
10145;BME280;5113;41.822;23.564;2022-10-16T01:58:50;-11050.25;;;4.19;100.00
10145;BME280;5113;41.822;23.564;2022-10-16T02:02:01;-11050.13;;;4.19;100.00
10145;BME280;5113;41.822;23.564;2022-10-16T02:05:14;-11022.91;;;3.20;100.00
10145;BME280;5113;41.822;23.564;2022-10-16T02:08:23;-11033.69;;;3.59;100.00
10145;BME280;5113;41.822;23.564;2022-10-16T02:11:30;-11050.25;;;4.19;100.00
10145;BME280;5113;41.822;23.564;2022-10-16T02:14:38;-11046.03;;;4.04;100.00
10145;BME280;5113;41.822;23.564;2022-10-16T02:17:45;-11055.88;;;4.40;100.00
10145;BME280;5113;41.822;23.564;2022-10-16T02:20:55;-11018.28;;;3.04;100.00
10145;BME280;5113;41.822;23.564;2022-10-16T02:24:05;-11020.38;;;3.11;100.00
10145;BME280;5113;41.822;23.564;2022-10-16T02:27:19;-11025.44;;;3.29;100.00
10145;BME280;5113;41.822;23.564;2022-10-16T02:30:33;-11027.09;;;3.36;100.00
10145;BME280;5113;41.822;23.564;2022-10-16T02:33:42;-11034.53;;;3.62;100.00
10145;BME280;5113;41.822;23.564;2022-10-16T02:36:51;-11042.97;;;3.93;100.00
10145;BME280;5113;41.822;23.564;2022-10-16T02:40:00;-11050.13;;;4.19;100.00
10145;BME280;5113;41.822;23.564;2022-10-16T02:43:07;-11050.41;;;4.20;100.00
10145;BME280;5113;41.822;23.564;2022-10-16T02:46:16;-11048.16;;;4.12;100.00
10145;BME280;5113;41.822;23.564;2022-10-16T02:49:23;-11046.47;;;4.06;100.00
10145;BME280;5113;41.822;23.564;2022-10-16T02:52:29;-11053.47;;;4.31;100.00
10145;BME280;5113;41.822;23.564;2022-10-16T02:55:36;-11035.81;;;3.67;100.00
10145;BME280;5113;41.822;23.564;2022-10-16T02:58:42;-11029.34;;;3.44;100.00
10145;BME280;5113;41.822;23.564;2022-10-16T03:01:50;-11011.41;;;2.79;100.00
10145;BME280;5113;41.822;23.564;2022-10-16T03:04:56;-11043.94;;;3.96;100.00
10145;BME280;5113;41.822;23.564;2022-10-16T03:08:02;-11034.97;;;3.64;100.00
10145;BME280;5113;41.822;23.564;2022-10-16T03:11:08;-11045.50;;;4.02;100.00
10145;BME280;5113;41.822;23.564;2022-10-16T03:14:14;-11045.06;;;4.01;100.00
10145;BME280;5113;41.822;23.564;2022-10-16T03:17:22;-11047.72;;;4.10;100.00
10145;BME280;5113;41.822;23.564;2022-10-16T03:20:28;-11049.97;;;4.18;100.00
10145;BME280;5113;41.822;23.564;2022-10-16T03:23:35;-11053.34;;;4.30;100.00
10145;BME280;5113;41.822;23.564;2022-10-16T03:26:41;-11046.75;;;4.07;100.00
10145;BME280;5113;41.822;23.564;2022-10-16T03:29:47;-11053.06;;;4.29;100.00
10145;BME280;5113;41.822;23.564;2022-10-16T03:32:55;-11050.69;;;4.21;100.00
10145;BME280;5113;41.822;23.564;2022-10-16T03:36:01;-11039.88;;;3.82;100.00
10145;BME280;5113;41.822;23.564;2022-10-16T03:39:07;-11033.00;;;3.57;100.00
10145;BME280;5113;41.822;23.564;2022-10-16T03:42:14;-11027.94;;;3.39;100.00
10145;BME280;5113;41.822;23.564;2022-10-16T03:45:20;-11031.44;;;3.51;100.00
10145;BME280;5113;41.822;23.564;2022-10-16T03:48:28;-11037.06;;;3.72;100.00
10145;BME280;5113;41.822;23.564;2022-10-16T03:51:35;-11040.56;;;3.84;100.00
10145;BME280;5113;41.822;23.564;2022-10-16T03:54:41;-11033.13;;;3.57;100.00
10145;BME280;5113;41.822;23.564;2022-10-16T03:57:47;-11028.94;;;3.42;100.00
10145;BME280;5113;41.822;23.564;2022-10-16T04:00:54;-11025.72;;;3.30;100.00
10145;BME280;5113;41.822;23.564;2022-10-16T04:04:01;-11020.66;;;3.12;100.00
10145;BME280;5113;41.822;23.564;2022-10-16T04:07:07;-11016.16;;;2.96;100.00
10145;BME280;5113;41.822;23.564;2022-10-16T04:10:13;-11038.19;;;3.76;100.00
10145;BME280;5113;41.822;23.564;2022-10-16T04:13:19;-11019.94;;;3.10;100.00
10145;BME280;5113;41.822;23.564;2022-10-16T04:16:26;-11025.16;;;3.28;100.00
10145;BME280;5113;41.822;23.564;2022-10-16T04:19:34;-11023.31;;;3.22;100.00
10145;BME280;5113;41.822;23.564;2022-10-16T04:22:40;-11016.72;;;2.98;100.00
10145;BME280;5113;41.822;23.564;2022-10-16T04:25:46;-11019.41;;;3.08;100.00
10145;BME280;5113;41.822;23.564;2022-10-16T04:28:52;-11002.72;;;2.47;100.00
10145;BME280;5113;41.822;23.564;2022-10-16T04:31:59;-11023.88;;;3.24;100.00
10145;BME280;5113;41.822;23.564;2022-10-16T04:35:07;-11013.78;;;2.87;100.00
10145;BME280;5113;41.822;23.564;2022-10-16T04:38:14;-10988.41;;;1.95;100.00
10145;BME280;5113;41.822;23.564;2022-10-16T04:41:20;-10987.00;;;1.90;100.00
10145;BME280;5113;41.822;23.564;2022-10-16T04:44:26;-10989.09;;;1.98;100.00
10145;BME280;5113;41.822;23.564;2022-10-16T04:47:32;-10988.69;;;1.96;100.00
10145;BME280;5113;41.822;23.564;2022-10-16T04:50:41;-11008.03;;;2.67;100.00
10145;BME280;5113;41.822;23.564;2022-10-16T04:53:46;-11010.84;;;2.77;100.00
10145;BME280;5113;41.822;23.564;2022-10-16T04:56:53;-11003.97;;;2.52;100.00
10145;BME280;5113;41.822;23.564;2022-10-16T04:59:59;-11017.00;;;2.99;100.00
10145;BME280;5113;41.822;23.564;2022-10-16T05:03:05;-11001.59;;;2.43;100.00
10145;BME280;5113;41.822;23.564;2022-10-16T05:06:14;-11004.38;;;2.53;100.00
10145;BME280;5113;41.822;23.564;2022-10-16T05:09:21;-11017.00;;;2.99;100.00
10145;BME280;5113;41.822;23.564;2022-10-16T05:12:27;-11016.59;;;2.97;100.00
10145;BME280;5113;41.822;23.564;2022-10-16T05:15:33;-11024.88;;;3.27;100.00
10145;BME280;5113;41.822;23.564;2022-10-16T05:18:39;-11014.91;;;2.91;100.00
10145;BME280;5113;41.822;23.564;2022-10-16T05:21:47;-11005.22;;;2.56;100.00
10145;BME280;5113;41.822;23.564;2022-10-16T05:24:53;-11005.94;;;2.59;100.00
10145;BME280;5113;41.822;23.564;2022-10-16T05:27:59;-11032.28;;;3.54;100.00
10145;BME280;5113;41.822;23.564;2022-10-16T05:31:06;-11039.44;;;3.80;100.00
10145;BME280;5113;41.822;23.564;2022-10-16T05:34:12;-11031.16;;;3.50;100.00
10145;BME280;5113;41.822;23.564;2022-10-16T05:37:20;-11035.09;;;3.64;100.00
10145;BME280;5113;41.822;23.564;2022-10-16T05:40:27;-11041.13;;;3.86;100.00
10145;BME280;5113;41.822;23.564;2022-10-16T05:43:33;-11056.16;;;4.41;100.00
10145;BME280;5113;41.822;23.564;2022-10-16T05:46:39;-11065.28;;;4.74;100.00
10145;BME280;5113;41.822;23.564;2022-10-16T05:49:46;-11066.38;;;4.78;100.00
10145;BME280;5113;41.822;23.564;2022-10-16T05:52:53;-11080.16;;;5.27;100.00
10145;BME280;5113;41.822;23.564;2022-10-16T05:56:00;-11084.78;;;5.44;100.00
10145;BME280;5113;41.822;23.564;2022-10-16T05:59:06;-11093.63;;;5.76;100.00
10145;BME280;5113;41.822;23.564;2022-10-16T06:02:13;-11088.56;;;5.58;100.00
10145;BME280;5113;41.822;23.564;2022-10-16T06:05:20;-11092.38;;;5.72;100.00
10145;BME280;5113;41.822;23.564;2022-10-16T06:08:27;-11101.22;;;6.04;100.00
10145;BME280;5113;41.822;23.564;2022-10-16T06:11:33;-11086.88;;;5.52;100.00
10145;BME280;5113;41.822;23.564;2022-10-16T06:14:40;-11099.25;;;5.96;100.00
10145;BME280;5113;41.822;23.564;2022-10-16T06:17:46;-11102.62;;;6.09;100.00
10145;BME280;5113;41.822;23.564;2022-10-16T06:20:53;-11100.09;;;6.00;100.00
10145;BME280;5113;41.822;23.564;2022-10-16T06:24:01;-11122.13;;;6.79;100.00
10145;BME280;5113;41.822;23.564;2022-10-16T06:27:07;-11123.41;;;6.84;100.00
10145;BME280;5113;41.822;23.564;2022-10-16T06:30:14;-11134.34;;;7.23;100.00
10145;BME280;5113;41.822;23.564;2022-10-16T06:33:20;-11124.53;;;6.88;100.00
10145;BME280;5113;41.822;23.564;2022-10-16T06:36:27;-11145.88;;;7.65;100.00
10145;BME280;5113;41.822;23.564;2022-10-16T06:39:34;-11152.06;;;7.87;100.00
10145;BME280;5113;41.822;23.564;2022-10-16T06:42:41;-11160.91;;;8.19;100.00
10145;BME280;5113;41.822;23.564;2022-10-16T06:45:51;-11172.03;;;8.59;100.00
10145;BME280;5113;41.822;23.564;2022-10-16T06:48:57;-11170.75;;;8.55;100.00
10145;BME280;5113;41.822;23.564;2022-10-16T06:52:04;-11178.91;;;8.84;100.00
10145;BME280;5113;41.822;23.564;2022-10-16T06:55:11;-11181.84;;;8.95;100.00
10145;BME280;5113;41.822;23.564;2022-10-16T06:58:18;-11191.13;;;9.28;100.00
10145;BME280;5113;41.822;23.564;2022-10-16T07:01:24;-11190.84;;;9.27;100.00
10145;BME280;5113;41.822;23.564;2022-10-16T07:04:30;-11199.00;;;9.57;100.00
10145;BME280;5113;41.822;23.564;2022-10-16T07:07:36;-11204.63;;;9.77;100.00
10145;BME280;5113;41.822;23.564;2022-10-16T07:10:44;-11207.31;;;9.87;100.00
10145;BME280;5113;41.822;23.564;2022-10-16T07:13:51;-11221.66;;;10.39;100.00
10145;BME280;5113;41.822;23.564;2022-10-16T07:16:59;-11228.53;;;10.64;100.00
10145;BME280;5113;41.822;23.564;2022-10-16T07:20:07;-11216.72;;;10.21;100.00
10145;BME280;5113;41.822;23.564;2022-10-16T07:23:13;-11217.00;;;10.22;100.00
10145;BME280;5113;41.822;23.564;2022-10-16T07:26:21;-11227.97;;;10.62;100.00
10145;BME280;5113;41.822;23.564;2022-10-16T07:29:27;-11240.34;;;11.06;100.00
10145;BME280;5113;41.822;23.564;2022-10-16T07:32:33;-11232.63;;;10.78;100.00
10145;BME280;5113;41.822;23.564;2022-10-16T07:35:47;-11236.16;;;10.91;100.00
10145;BME280;5113;41.822;23.564;2022-10-16T07:38:53;-11253.16;;;11.52;100.00
10145;BME280;5113;41.822;23.564;2022-10-16T07:42:05;-11257.25;;;11.67;100.00
10145;BME280;5113;41.822;23.564;2022-10-16T07:45:12;-11257.25;;;11.67;100.00
10145;BME280;5113;41.822;23.564;2022-10-16T07:48:19;-11269.50;;;12.11;98.85
10145;BME280;5113;41.822;23.564;2022-10-16T07:51:25;-11271.31;;;12.18;97.46
10145;BME280;5113;41.822;23.564;2022-10-16T07:54:32;-11273.72;;;12.27;96.83
10145;BME280;5113;41.822;23.564;2022-10-16T07:57:40;-11274.12;;;12.28;97.54
10145;BME280;5113;41.822;23.564;2022-10-16T08:00:46;-11280.47;;;12.51;96.64
10145;BME280;5113;41.822;23.564;2022-10-16T08:03:52;-11280.19;;;12.50;96.96
10145;BME280;5113;41.822;23.564;2022-10-16T08:06:59;-11285.41;;;12.69;96.47
10145;BME280;5113;41.822;23.564;2022-10-16T08:10:05;-11289.91;;;12.85;92.91
10145;BME280;5113;41.822;23.564;2022-10-16T08:13:13;-11300.75;;;13.24;91.45
10145;BME280;5113;41.822;23.564;2022-10-16T08:16:20;-11300.31;;;13.23;88.83
10145;BME280;5113;41.822;23.564;2022-10-16T08:19:26;-11312.72;;;13.67;87.05
10145;BME280;5113;41.822;23.564;2022-10-16T08:22:32;-11308.91;;;13.53;83.79
10145;BME280;5113;41.822;23.564;2022-10-16T08:25:39;-11318.75;;;13.89;84.47
10145;BME280;5113;41.822;23.564;2022-10-16T08:28:49;-11314.81;;;13.75;81.69
10145;BME280;5113;41.822;23.564;2022-10-16T08:31:55;-11316.50;;;13.81;81.41
10145;BME280;5113;41.822;23.564;2022-10-16T08:35:02;-11324.81;;;14.11;79.12
10145;BME280;5113;41.822;23.564;2022-10-16T08:38:08;-11339.47;;;14.64;78.96
10145;BME280;5113;41.822;23.564;2022-10-16T08:41:24;-11329.31;;;14.27;77.46
10145;BME280;5113;41.822;23.564;2022-10-16T08:45:04;-11323.41;;;14.06;77.15
10145;BME280;5113;41.822;23.564;2022-10-16T08:48:20;-11336.94;;;14.54;77.45
10145;BME280;5113;41.822;23.564;2022-10-16T08:51:30;-11349.03;;;14.98;73.92
10145;BME280;5113;41.822;23.564;2022-10-16T08:54:41;-11353.13;;;15.13;71.45
10145;BME280;5113;41.822;23.564;2022-10-16T08:57:49;-11332.13;;;14.37;69.18
10145;BME280;5113;41.822;23.564;2022-10-16T09:01:00;-11351.28;;;15.06;68.23
10145;BME280;5113;41.822;23.564;2022-10-16T09:07:59;-11351.84;;;15.08;68.72
10145;BME280;5113;41.822;23.564;2022-10-16T09:11:17;-11363.41;;;15.50;67.90
10145;BME280;5113;41.822;23.564;2022-10-16T09:14:40;-11367.34;;;15.64;66.53
10145;BME280;5113;41.822;23.564;2022-10-16T09:17:58;-11361.72;;;15.44;66.38
10145;BME280;5113;41.822;23.564;2022-10-16T09:21:10;-11368.91;;;15.70;63.57
10145;BME280;5113;41.822;23.564;2022-10-16T09:24:23;-11370.16;;;15.74;61.67
10145;BME280;5113;41.822;23.564;2022-10-16T09:27:33;-11381.16;;;16.14;63.19
10145;BME280;5113;41.822;23.564;2022-10-16T09:30:39;-11384.97;;;16.28;60.92
10145;BME280;5113;41.822;23.564;2022-10-16T09:33:51;-11376.94;;;15.99;62.22
10145;BME280;5113;41.822;23.564;2022-10-16T09:36:59;-11378.06;;;16.03;60.03
10145;BME280;5113;41.822;23.564;2022-10-16T09:40:12;-11396.38;;;16.69;60.47
10145;BME280;5113;41.822;23.564;2022-10-16T09:43:22;-11407.09;;;17.07;59.19
10145;BME280;5113;41.822;23.564;2022-10-16T09:46:33;-11402.44;;;16.91;59.10
10145;BME280;5113;41.822;23.564;2022-10-16T09:49:50;-11397.09;;;16.71;58.62
10145;BME280;5113;41.822;23.564;2022-10-16T09:53:05;-11411.47;;;17.23;57.22
10145;BME280;5113;41.822;23.564;2022-10-16T09:56:20;-11417.09;;;17.43;56.81
10145;BME280;5113;41.822;23.564;2022-10-16T09:59:27;-11423.00;;;17.65;55.97
10145;BME280;5113;41.822;23.564;2022-10-16T10:02:37;-11433.72;;;18.03;54.00
10145;BME280;5113;41.822;23.564;2022-10-16T10:05:48;-11430.34;;;17.91;53.07
10145;BME280;5113;41.822;23.564;2022-10-16T10:08:57;-11433.31;;;18.02;54.41
10145;BME280;5113;41.822;23.564;2022-10-16T10:12:05;-11415.41;;;17.37;51.37
10145;BME280;5113;41.822;23.564;2022-10-16T10:15:13;-11432.03;;;17.97;49.83
10145;BME280;5113;41.822;23.564;2022-10-16T10:18:25;-11418.66;;;17.49;49.52
10145;BME280;5113;41.822;23.564;2022-10-16T10:21:34;-11447.69;;;18.54;47.52
10145;BME280;5113;41.822;23.564;2022-10-16T10:24:44;-11436.41;;;18.13;48.65
10145;BME280;5113;41.822;23.564;2022-10-16T10:28:01;-11441.06;;;18.30;47.90
10145;BME280;5113;41.822;23.564;2022-10-16T10:31:17;-11436.13;;;18.12;47.10
10145;BME280;5113;41.822;23.564;2022-10-16T10:34:40;-11446.56;;;18.49;46.11
10145;BME280;5113;41.822;23.564;2022-10-16T10:38:02;-11421.03;;;17.58;46.60
10145;BME280;5113;41.822;23.564;2022-10-16T10:41:33;-11449.66;;;18.61;46.06
10145;BME280;5113;41.822;23.564;2022-10-16T10:44:55;-11453.19;;;18.73;45.59
10145;BME280;5113;41.822;23.564;2022-10-16T10:48:19;-11448.81;;;18.58;45.01
10145;BME280;5113;41.822;23.564;2022-10-16T10:51:31;-11449.94;;;18.62;44.97
10145;BME280;5113;41.822;23.564;2022-10-16T10:54:50;-11460.81;;;19.01;44.12
10145;BME280;5113;41.822;23.564;2022-10-16T10:58:21;-11462.06;;;19.05;43.96
10145;BME280;5113;41.822;23.564;2022-10-16T11:01:43;-11472.78;;;19.44;42.06
10145;BME280;5113;41.822;23.564;2022-10-16T11:05:14;-11450.78;;;18.65;42.63
10145;BME280;5113;41.822;23.564;2022-10-16T11:08:29;-11458.41;;;18.92;42.46
10145;BME280;5113;41.822;23.564;2022-10-16T11:11:42;-11448.25;;;18.56;42.12
10145;BME280;5113;41.822;23.564;2022-10-16T11:14:54;-11449.38;;;18.60;41.80
10145;BME280;5113;41.822;23.564;2022-10-16T11:18:06;-11463.34;;;19.10;40.82
10145;BME280;5113;41.822;23.564;2022-10-16T11:21:16;-11483.50;;;19.83;39.63
10145;BME280;5113;41.822;23.564;2022-10-16T11:24:35;-11483.50;;;19.83;39.18
10145;BME280;5113;41.822;23.564;2022-10-16T11:27:50;-11462.91;;;19.08;37.75
10145;BME280;5113;41.822;23.564;2022-10-16T11:31:02;-11469.13;;;19.31;37.23
10145;BME280;5113;41.822;23.564;2022-10-16T11:34:13;-11474.34;;;19.50;37.01
10145;BME280;5113;41.822;23.564;2022-10-16T11:37:25;-11497.19;;;20.32;37.03
10145;BME280;5113;41.822;23.564;2022-10-16T11:40:38;-11488.88;;;20.02;37.52
10145;BME280;5113;41.822;23.564;2022-10-16T11:43:54;-11494.78;;;20.23;39.77
10145;BME280;5113;41.822;23.564;2022-10-16T11:47:13;-11497.59;;;20.33;37.07
10145;BME280;5113;41.822;23.564;2022-10-16T11:50:47;-11493.09;;;20.17;37.37
10145;BME280;5113;41.822;23.564;2022-10-16T11:53:59;-11482.66;;;19.79;35.47
10145;BME280;5113;41.822;23.564;2022-10-16T11:57:11;-11480.41;;;19.71;37.68
10145;BME280;5113;41.822;23.564;2022-10-16T12:00:24;-11508.91;;;20.74;36.77
10145;BME280;5113;41.822;23.564;2022-10-16T12:03:34;-11507.34;;;20.68;33.13
10145;BME280;5113;41.822;23.564;2022-10-16T12:06:43;-11473.91;;;19.48;35.24
10145;BME280;5113;41.822;23.564;2022-10-16T12:09:50;-11496.19;;;20.28;35.55
10145;BME280;5113;41.822;23.564;2022-10-16T12:12:56;-11490.84;;;20.09;36.05
10145;BME280;5113;41.822;23.564;2022-10-16T12:16:20;-11484.34;;;19.86;34.96
10145;BME280;5113;41.822;23.564;2022-10-16T12:19:28;-11502.28;;;20.50;34.70
10145;BME280;5113;41.822;23.564;2022-10-16T12:22:35;-11501.84;;;20.49;35.33
10145;BME280;5113;41.822;23.564;2022-10-16T12:25:53;-11489.72;;;20.05;35.33
10145;BME280;5113;41.822;23.564;2022-10-16T12:29:13;-11474.75;;;19.51;35.04
10145;BME280;5113;41.822;23.564;2022-10-16T12:32:28;-11484.91;;;19.88;34.42
10145;BME280;5113;41.822;23.564;2022-10-16T12:35:52;-11491.81;;;20.13;33.95
10145;BME280;5113;41.822;23.564;2022-10-16T12:39:03;-11490.84;;;20.09;34.18
10145;BME280;5113;41.822;23.564;2022-10-16T12:42:34;-11505.94;;;20.63;34.60
10145;BME280;5113;41.822;23.564;2022-10-16T12:45:41;-11524.97;;;21.32;33.90
10145;BME280;5113;41.822;23.564;2022-10-16T12:48:49;-11521.31;;;21.19;34.93
10145;BME280;5113;41.822;23.564;2022-10-16T12:52:25;-11527.25;;;21.40;35.70
10145;BME280;5113;41.822;23.564;2022-10-16T12:55:43;-11519.06;;;21.10;36.13
10145;BME280;5113;41.822;23.564;2022-10-16T12:59:03;-11506.94;;;20.67;34.46
10145;BME280;5113;41.822;23.564;2022-10-16T13:02:39;-11489.44;;;20.04;36.68
10145;BME280;5113;41.822;23.564;2022-10-16T13:05:57;-11488.31;;;20.00;36.44
10145;BME280;5113;41.822;23.564;2022-10-16T13:09:30;-11533.03;;;21.61;36.77
10145;BME280;5113;41.822;23.564;2022-10-16T13:12:55;-11535.13;;;21.68;34.44
10145;BME280;5113;41.822;23.564;2022-10-16T13:16:14;-11526.94;;;21.39;36.23
10145;BME280;5113;41.822;23.564;2022-10-16T13:19:28;-11521.44;;;21.19;35.91
10145;BME280;5113;41.822;23.564;2022-10-16T13:22:41;-11526.81;;;21.38;38.17
10145;BME280;5113;41.822;23.564;2022-10-16T13:26:05;-11530.06;;;21.50;37.28
10145;BME280;5113;41.822;23.564;2022-10-16T13:29:15;-11534.28;;;21.65;36.67
10145;BME280;5113;41.822;23.564;2022-10-16T13:32:21;-11528.09;;;21.43;38.19
10145;BME280;5113;41.822;23.564;2022-10-16T13:35:29;-11535.56;;;21.70;36.76
10145;BME280;5113;41.822;23.564;2022-10-16T13:38:38;-11536.12;;;21.72;36.31
10145;BME280;5113;41.822;23.564;2022-10-16T13:41:44;-11535.28;;;21.69;36.73
10145;BME280;5113;41.822;23.564;2022-10-16T13:44:52;-11542.63;;;21.95;36.27
10145;BME280;5113;41.822;23.564;2022-10-16T13:48:03;-11507.78;;;20.70;38.77
10145;BME280;5113;41.822;23.564;2022-10-16T13:51:13;-11507.34;;;20.68;38.59
10145;BME280;5113;41.822;23.564;2022-10-16T13:54:22;-11521.88;;;21.21;38.81
10145;BME280;5113;41.822;23.564;2022-10-16T13:57:29;-11510.31;;;20.79;39.77
10145;BME280;5113;41.822;23.564;2022-10-16T14:00:35;-11508.19;;;20.71;39.20
10145;BME280;5113;41.822;23.564;2022-10-16T14:03:47;-11501.28;;;20.47;38.97
10145;BME280;5113;41.822;23.564;2022-10-16T14:06:54;-11491.69;;;20.12;39.81
10145;BME280;5113;41.822;23.564;2022-10-16T14:10:05;-11499.88;;;20.41;39.67
10145;BME280;5113;41.822;23.564;2022-10-16T14:13:15;-11514.53;;;20.94;39.66
10145;BME280;5113;41.822;23.564;2022-10-16T14:16:27;-11498.03;;;20.35;39.64
10145;BME280;5113;41.822;23.564;2022-10-16T14:19:34;-11470.53;;;19.36;42.26
10145;BME280;5113;41.822;23.564;2022-10-16T14:22:41;-11486.47;;;19.93;41.03
10145;BME280;5113;41.822;23.564;2022-10-16T14:25:48;-11480.13;;;19.70;38.57
10145;BME280;5113;41.822;23.564;2022-10-16T14:29:08;-11482.25;;;19.78;37.34
10145;BME280;5113;41.822;23.564;2022-10-16T14:32:22;-11482.66;;;19.79;37.10
10145;BME280;5113;41.822;23.564;2022-10-16T14:35:31;-11491.41;;;20.11;35.83
10145;BME280;5113;41.822;23.564;2022-10-16T14:38:39;-11479.97;;;19.70;35.75
10145;BME280;5113;41.822;23.564;2022-10-16T14:41:49;-11478.72;;;19.65;35.72
10145;BME280;5113;41.822;23.564;2022-10-16T14:44:56;-11427.66;;;17.81;38.30
10145;BME280;5113;41.822;23.564;2022-10-16T14:48:06;-11409.63;;;17.16;40.11
10145;BME280;5113;41.822;23.564;2022-10-16T14:51:23;-11405.41;;;17.01;40.65
10145;BME280;5113;41.822;23.564;2022-10-16T14:54:30;-11402.16;;;16.90;39.98
10145;BME280;5113;41.822;23.564;2022-10-16T14:57:38;-11391.88;;;16.52;40.03
10145;BME280;5113;41.822;23.564;2022-10-16T15:00:44;-11383.69;;;16.23;40.59
10145;BME280;5113;41.822;23.564;2022-10-16T15:03:51;-11382.44;;;16.18;41.52
10145;BME280;5113;41.822;23.564;2022-10-16T15:07:00;-11374.41;;;15.90;42.68
10145;BME280;5113;41.822;23.564;2022-10-16T15:10:07;-11373.00;;;15.84;40.80
10145;BME280;5113;41.822;23.564;2022-10-16T15:13:15;-11365.66;;;15.58;44.23
10145;BME280;5113;41.822;23.564;2022-10-16T15:16:20;-11372.84;;;15.84;40.40
10145;BME280;5113;41.822;23.564;2022-10-16T15:19:27;-11365.38;;;15.57;48.25
10145;BME280;5113;41.822;23.564;2022-10-16T15:22:33;-11340.59;;;14.68;53.61
10145;BME280;5113;41.822;23.564;2022-10-16T15:25:42;-11337.91;;;14.58;56.56
10145;BME280;5113;41.822;23.564;2022-10-16T15:28:50;-11332.41;;;14.38;58.93
10145;BME280;5113;41.822;23.564;2022-10-16T15:31:56;-11315.81;;;13.78;63.83
10145;BME280;5113;41.822;23.564;2022-10-16T15:35:03;-11314.25;;;13.73;65.39
10145;BME280;5113;41.822;23.564;2022-10-16T15:38:11;-11308.34;;;13.51;67.38
10145;BME280;5113;41.822;23.564;2022-10-16T15:41:18;-11305.09;;;13.40;67.96
10145;BME280;5113;41.822;23.564;2022-10-16T15:44:26;-11299.47;;;13.19;67.90
10145;BME280;5113;41.822;23.564;2022-10-16T15:47:34;-11287.06;;;12.75;74.17
10145;BME280;5113;41.822;23.564;2022-10-16T15:50:46;-11285.97;;;12.71;74.28
10145;BME280;5113;41.822;23.564;2022-10-16T15:53:52;-11288.78;;;12.81;70.65
10145;BME280;5113;41.822;23.564;2022-10-16T15:56:58;-11289.91;;;12.85;71.38
10145;BME280;5113;41.822;23.564;2022-10-16T16:00:08;-11282.16;;;12.57;69.58
10145;BME280;5113;41.822;23.564;2022-10-16T16:03:15;-11291.03;;;12.89;66.57
10145;BME280;5113;41.822;23.564;2022-10-16T16:06:22;-11273.00;;;12.24;73.20
10145;BME280;5113;41.822;23.564;2022-10-16T16:09:29;-11269.06;;;12.10;75.90
10145;BME280;5113;41.822;23.564;2022-10-16T16:12:35;-11268.50;;;12.08;74.69
10145;BME280;5113;41.822;23.564;2022-10-16T16:15:43;-11263.59;;;11.90;76.18
10145;BME280;5113;41.822;23.564;2022-10-16T16:18:52;-11266.97;;;12.02;75.46
10145;BME280;5113;41.822;23.564;2022-10-16T16:21:59;-11258.78;;;11.73;75.23
10145;BME280;5113;41.822;23.564;2022-10-16T16:25:05;-11249.50;;;11.39;79.93
10145;BME280;5113;41.822;23.564;2022-10-16T16:28:12;-11251.47;;;11.46;78.60
10145;BME280;5113;41.822;23.564;2022-10-16T16:31:20;-11239.78;;;11.04;84.23
10145;BME280;5113;41.822;23.564;2022-10-16T16:34:29;-11243.59;;;11.18;86.35
10145;BME280;5113;41.822;23.564;2022-10-16T16:37:36;-11242.03;;;11.12;81.73